createdAt,value
2019-04-23T00:00:45.611Z,0.00
2019-04-23T00:01:54.383Z,0.00
2019-04-23T00:02:53.460Z,0.00
2019-04-23T00:03:46.998Z,0.00
2019-04-23T00:04:45.277Z,0.00
2019-04-23T00:05:48.215Z,0.00
2019-04-23T00:07:03.508Z,0.00
2019-04-23T00:07:49.867Z,0.00
2019-04-23T00:08:49.709Z,0.00
2019-04-23T00:09:47.083Z,0.00
2019-04-23T00:10:45.962Z,0.00
2019-04-23T00:11:45.866Z,0.00
2019-04-23T00:14:55.034Z,0.00
2019-04-23T00:15:51.936Z,0.00
2019-04-23T00:16:44.056Z,0.00
2019-04-23T00:19:50.228Z,0.00
2019-04-23T00:20:47.770Z,0.00
2019-04-23T00:21:45.897Z,0.00
2019-04-23T00:22:53.272Z,0.00
2019-04-23T00:23:52.997Z,0.00
2019-04-23T00:25:12.185Z,0.00
2019-04-23T00:25:53.752Z,0.00
2019-04-23T00:26:44.980Z,0.00
2019-04-23T00:28:54.222Z,0.00
2019-04-23T00:29:53.783Z,0.00
2019-04-23T00:30:50.229Z,0.00
2019-04-23T00:31:44.567Z,0.00
2019-04-23T00:32:51.622Z,0.00
2019-04-23T00:33:43.688Z,0.00
2019-04-23T00:34:47.985Z,0.00
2019-04-23T00:35:43.968Z,0.00
2019-04-23T00:36:47.684Z,0.00
2019-04-23T00:37:40.366Z,0.00
2019-04-23T00:38:44.759Z,0.00
2019-04-23T00:40:46.765Z,0.00
2019-04-23T00:41:44.176Z,0.00
2019-04-23T00:43:51.356Z,0.00
2019-04-23T00:44:47.902Z,0.00
2019-04-23T00:45:44.482Z,0.00
2019-04-23T00:46:50.696Z,0.00
2019-04-23T00:47:48.522Z,0.00
2019-04-23T00:48:51.556Z,0.00
2019-04-23T00:49:53.276Z,0.00
2019-04-23T00:50:52.988Z,0.00
2019-04-23T00:51:42.651Z,0.00
2019-04-23T00:52:46.188Z,0.00
2019-04-23T00:53:47.586Z,0.00
2019-04-23T00:54:48.829Z,0.00
2019-04-23T00:55:46.622Z,0.00
2019-04-23T00:56:46.199Z,0.00
2019-04-23T00:57:43.965Z,0.00
2019-04-23T00:59:55.874Z,0.00
2019-04-23T01:00:45.935Z,0.00
2019-04-23T01:02:48.282Z,0.00
2019-04-23T01:03:47.302Z,0.00
2019-04-23T01:04:47.654Z,0.00
2019-04-23T01:05:45.447Z,0.00
2019-04-23T01:06:47.748Z,0.00
2019-04-23T01:07:44.468Z,0.00
2019-04-23T01:08:45.751Z,0.00
2019-04-23T01:09:45.797Z,0.00
2019-04-23T01:10:51.142Z,0.00
2019-04-23T01:11:46.690Z,0.00
2019-04-23T01:12:51.699Z,0.00
2019-04-23T01:14:38.535Z,0.00
2019-04-23T01:15:45.912Z,0.00
2019-04-23T01:17:05.222Z,0.00
2019-04-23T01:17:49.311Z,0.00
2019-04-23T01:19:45.075Z,0.00
2019-04-23T01:20:44.513Z,0.00
2019-04-23T01:21:24.396Z,0.00
2019-04-23T01:22:23.249Z,0.00
2019-04-23T01:23:28.598Z,0.00
2019-04-23T01:24:25.911Z,0.00
2019-04-23T01:25:34.127Z,0.00
2019-04-23T01:26:42.138Z,0.00
2019-04-23T01:27:51.656Z,0.00
2019-04-23T01:28:49.717Z,0.00
2019-04-23T01:29:50.699Z,0.00
2019-04-23T01:30:53.002Z,0.00
2019-04-23T01:31:58.892Z,0.00
2019-04-23T01:32:48.456Z,0.00
2019-04-23T01:34:11.027Z,0.00
2019-04-23T01:34:58.953Z,0.00
2019-04-23T01:36:05.885Z,0.00
2019-04-23T01:36:48.754Z,0.00
2019-04-23T01:37:49.313Z,0.00
2019-04-23T01:39:52.901Z,0.00
2019-04-23T01:41:01.747Z,0.00
2019-04-23T01:42:45.011Z,0.00
2019-04-23T01:43:47.817Z,0.00
2019-04-23T01:44:54.110Z,0.00
2019-04-23T01:45:47.905Z,0.00
2019-04-23T01:46:51.003Z,0.00
2019-04-23T01:47:50.015Z,0.00
2019-04-23T01:49:58.192Z,0.00
2019-04-23T01:50:58.870Z,0.00
2019-04-23T01:52:52.391Z,0.00
2019-04-23T01:54:52.361Z,0.00
2019-04-23T01:55:46.819Z,0.00
2019-04-23T01:56:50.999Z,0.00
2019-04-23T01:57:58.887Z,0.00
2019-04-23T01:59:55.456Z,0.00
2019-04-23T02:00:47.819Z,0.00
2019-04-23T02:01:50.425Z,0.00
2019-04-23T02:04:58.431Z,0.00
2019-04-23T02:05:48.367Z,0.00
2019-04-23T02:06:52.767Z,0.00
2019-04-23T02:07:53.721Z,0.00
2019-04-23T02:09:48.330Z,0.00
2019-04-23T02:12:06.655Z,0.00
2019-04-23T02:13:51.629Z,0.00
2019-04-23T02:14:50.412Z,0.00
2019-04-23T02:15:47.402Z,0.00
2019-04-23T02:16:50.047Z,0.00
2019-04-23T02:17:53.727Z,0.00
2019-04-23T02:18:50.749Z,0.00
2019-04-23T02:19:51.836Z,0.00
2019-04-23T02:20:48.046Z,0.00
2019-04-23T02:21:52.882Z,0.00
2019-04-23T02:23:01.723Z,0.00
2019-04-23T02:23:50.301Z,0.00
2019-04-23T02:24:49.253Z,0.00
2019-04-23T02:25:52.153Z,0.00
2019-04-23T02:26:50.455Z,0.00
2019-04-23T02:27:55.485Z,0.00
2019-04-23T02:30:08.547Z,0.00
2019-04-23T02:31:57.617Z,0.00
2019-04-23T02:33:10.651Z,0.00
2019-04-23T02:34:09.696Z,0.00
2019-04-23T02:35:02.371Z,0.00
2019-04-23T02:36:54.472Z,0.00
2019-04-23T02:38:03.466Z,0.00
2019-04-23T02:39:57.375Z,0.00
2019-04-23T02:43:06.851Z,0.00
2019-04-23T02:43:59.350Z,0.00
2019-04-23T02:44:53.863Z,0.00
2019-04-23T02:47:03.475Z,0.00
2019-04-23T02:48:03.387Z,0.00
2019-04-23T02:48:59.247Z,0.00
2019-04-23T02:50:12.742Z,0.00
2019-04-23T02:52:57.793Z,0.00
2019-04-23T02:54:21.490Z,0.00
2019-04-23T02:56:51.061Z,0.00
2019-04-23T02:57:54.303Z,0.00
2019-04-23T03:00:11.583Z,0.00
2019-04-23T03:01:15.052Z,0.00
2019-04-23T03:03:04.021Z,0.00
2019-04-23T03:06:12.781Z,0.00
2019-04-23T03:06:55.581Z,0.00
2019-04-23T03:09:53.834Z,0.00
2019-04-23T03:10:59.743Z,0.00
2019-04-23T03:14:07.472Z,0.00
2019-04-23T03:15:00.760Z,0.00
2019-04-23T03:16:03.785Z,0.00
2019-04-23T03:17:59.341Z,0.00
2019-04-23T03:18:53.744Z,0.00
2019-04-23T03:19:58.587Z,0.00
2019-04-23T03:21:07.498Z,0.00
2019-04-23T03:23:10.093Z,0.00
2019-04-23T03:24:55.460Z,0.00
2019-04-23T03:26:15.630Z,0.00
2019-04-23T03:27:50.984Z,0.00
2019-04-23T03:28:57.834Z,0.00
2019-04-23T03:34:34.102Z,0.00
2019-04-23T03:37:58.550Z,0.00
2019-04-23T03:41:02.485Z,0.00
2019-04-23T03:41:53.544Z,0.00
2019-04-23T03:42:57.662Z,0.00
2019-04-23T03:44:57.740Z,0.00
2019-04-23T03:46:55.339Z,4.00
2019-04-23T03:49:55.086Z,4.00
2019-04-23T03:51:01.325Z,0.00
2019-04-23T03:52:23.249Z,4.00
2019-04-23T03:52:44.781Z,0.00
2019-04-23T03:55:56.252Z,4.00
2019-04-23T03:59:55.037Z,12.00
2019-04-23T04:02:20.436Z,16.00
2019-04-23T04:03:02.193Z,20.00
2019-04-23T04:04:45.133Z,32.00
2019-04-23T04:06:03.415Z,36.00
2019-04-23T04:08:58.333Z,56.00
2019-04-23T04:09:51.918Z,68.00
2019-04-23T04:11:11.222Z,80.00
2019-04-23T04:11:45.054Z,92.00
2019-04-23T04:13:06.677Z,100.00
2019-04-23T04:14:04.793Z,120.00
2019-04-23T04:14:56.786Z,136.00
2019-04-23T06:30:56.073Z,6404.00
2019-04-23T06:32:55.237Z,6516.00
2019-04-23T06:33:59.216Z,6572.00
2019-04-23T06:34:54.682Z,6612.00
2019-04-23T06:35:54.856Z,6684.00
2019-04-23T06:36:50.979Z,6724.00
2019-04-23T06:38:12.483Z,6776.00
2019-04-23T06:39:02.764Z,6844.00
2019-04-23T06:40:58.703Z,6884.00
2019-04-23T06:42:53.140Z,6968.00
2019-04-23T06:43:58.423Z,6932.00
2019-04-23T06:44:51.702Z,6956.00
2019-04-23T06:45:49.218Z,6976.00
2019-04-23T06:47:56.369Z,7120.00
2019-04-23T06:48:46.987Z,7140.00
2019-04-23T06:49:54.523Z,7128.00
2019-04-23T06:51:00.795Z,7156.00
2019-04-23T06:52:02.420Z,7184.00
2019-04-23T06:52:50.163Z,7224.00
2019-04-23T06:53:49.826Z,7268.00
2019-04-23T06:54:56.175Z,7328.00
2019-04-23T06:57:00.584Z,7400.00
2019-04-23T06:57:48.284Z,7424.00
2019-04-23T06:58:48.971Z,7444.00
2019-04-23T06:59:52.687Z,7448.00
2019-04-23T07:00:55.458Z,7472.00
2019-04-23T07:01:59.665Z,7460.00
2019-04-23T07:02:58.273Z,7512.00
2019-04-23T07:03:55.755Z,7516.00
2019-04-23T07:04:58.663Z,7476.00
2019-04-23T07:06:03.675Z,7500.00
2019-04-23T07:07:52.826Z,7600.00
2019-04-23T07:10:52.052Z,7720.00
2019-04-23T07:11:47.875Z,7784.00
2019-04-23T07:13:03.655Z,7828.00
2019-04-23T07:13:57.693Z,7844.00
2019-04-23T07:15:55.251Z,8004.00
2019-04-23T07:16:52.711Z,8056.00
2019-04-23T07:17:51.595Z,8064.00
2019-04-23T07:19:48.345Z,8008.00
2019-04-23T07:20:50.464Z,8044.00
2019-04-23T07:21:51.313Z,8100.00
2019-04-23T07:22:59.600Z,8168.00
2019-04-23T07:24:52.974Z,8308.00
2019-04-23T07:25:59.380Z,8404.00
2019-04-23T07:26:42.499Z,8504.00
2019-04-23T07:27:49.252Z,8608.00
2019-04-23T07:28:53.260Z,8640.00
2019-04-23T07:29:56.782Z,8688.00
2019-04-23T07:30:55.908Z,8760.00
2019-04-23T07:31:54.692Z,8836.00
2019-04-23T07:32:52.875Z,8864.00
2019-04-23T07:34:59.197Z,9076.00
2019-04-23T07:35:51.887Z,9140.00
2019-04-23T07:36:48.014Z,9236.00
2019-04-23T07:37:54.540Z,9336.00
2019-04-23T07:39:01.561Z,9384.00
2019-04-23T07:40:07.649Z,9404.00
2019-04-23T07:40:46.717Z,9452.00
2019-04-23T07:41:56.353Z,9460.00
2019-04-23T07:42:52.724Z,9484.00
2019-04-23T07:43:54.790Z,9480.00
2019-04-23T07:45:57.587Z,9564.00
2019-04-23T07:47:05.338Z,9608.00
2019-04-23T07:48:03.485Z,9664.00
2019-04-23T07:48:48.000Z,9692.00
2019-04-23T07:50:00.715Z,9736.00
2019-04-23T07:50:52.819Z,9788.00
2019-04-23T07:51:54.024Z,9816.00
2019-04-23T07:52:58.668Z,9848.00
2019-04-23T07:53:53.552Z,9896.00
2019-04-23T07:54:58.761Z,9936.00
2019-04-23T07:56:53.376Z,10024.00
2019-04-23T07:57:59.778Z,10060.00
2019-04-23T07:58:46.377Z,10112.00
2019-04-23T07:59:56.269Z,10188.00
2019-04-23T08:01:52.436Z,10296.00
2019-04-23T08:03:01.078Z,10364.00
2019-04-23T08:03:57.680Z,10428.00
2019-04-23T08:05:44.111Z,10572.00
2019-04-23T08:06:52.567Z,10660.00
2019-04-23T08:07:52.986Z,10712.00
2019-04-23T08:08:50.569Z,10784.00
2019-04-23T08:09:53.206Z,10872.00
2019-04-23T08:11:03.046Z,10964.00
2019-04-23T08:11:54.301Z,11064.00
2019-04-23T08:12:54.754Z,11148.00
2019-04-23T08:14:00.439Z,11256.00
2019-04-23T08:14:55.291Z,11352.00
2019-04-23T08:15:47.632Z,11464.00
2019-04-23T08:16:48.544Z,11540.00
2019-04-23T08:17:53.085Z,11672.00
2019-04-23T08:19:57.592Z,11832.00
2019-04-23T08:20:57.097Z,11948.00
2019-04-23T08:21:58.201Z,12044.00
2019-04-23T08:22:57.308Z,12160.00
2019-04-23T08:23:56.953Z,12236.00
2019-04-23T08:24:55.563Z,12320.00
2019-04-23T08:26:03.277Z,12376.00
2019-04-23T08:26:55.247Z,12420.00
2019-04-23T08:27:48.617Z,12476.00
2019-04-23T08:28:59.604Z,12560.00
2019-04-23T08:29:58.839Z,12636.00
2019-04-23T08:30:52.752Z,12724.00
2019-04-23T08:31:52.765Z,12800.00
2019-04-23T08:32:55.448Z,12844.00
2019-04-23T08:33:57.492Z,12920.00
2019-04-23T08:34:56.427Z,13028.00
2019-04-23T08:35:55.745Z,13116.00
2019-04-23T08:38:50.848Z,13400.00
2019-04-23T08:39:48.051Z,13528.00
2019-04-23T08:41:03.954Z,13588.00
2019-04-23T08:43:08.957Z,13776.00
2019-04-23T08:44:03.464Z,13876.00
2019-04-23T08:44:57.032Z,13988.00
2019-04-23T08:45:46.318Z,14068.00
2019-04-23T08:46:56.809Z,14160.00
2019-04-23T08:47:56.539Z,14232.00
2019-04-23T08:49:03.307Z,14264.00
2019-04-23T08:49:47.192Z,14296.00
2019-04-23T08:53:00.176Z,14364.00
2019-04-23T08:53:51.303Z,14380.00
2019-04-23T08:54:51.968Z,14396.00
2019-04-23T08:56:03.698Z,14364.00
2019-04-23T08:56:55.157Z,14324.00
2019-04-23T08:57:43.771Z,14268.00
2019-04-23T08:58:49.032Z,14216.00
2019-04-23T09:00:52.660Z,14140.00
2019-04-23T09:02:07.174Z,14032.00
2019-04-23T09:02:53.290Z,14008.00
2019-04-23T09:03:47.796Z,13960.00
2019-04-23T09:04:55.412Z,13996.00
2019-04-23T09:05:55.988Z,13968.00
2019-04-23T09:06:53.161Z,13988.00
2019-04-23T09:09:10.424Z,13888.00
2019-04-23T09:09:57.829Z,13832.00
2019-04-23T09:10:55.948Z,13740.00
2019-04-23T09:11:54.317Z,13660.00
2019-04-23T09:12:58.749Z,13468.00
2019-04-23T09:14:51.049Z,13264.00
2019-04-23T09:15:49.929Z,13224.00
2019-04-23T09:16:50.983Z,13184.00
2019-04-23T09:18:47.220Z,13124.00
2019-04-23T09:20:07.076Z,13088.00
2019-04-23T09:20:41.143Z,13060.00
2019-04-23T09:21:50.357Z,13040.00
2019-04-23T09:22:42.191Z,13020.00
2019-04-23T09:24:55.513Z,12972.00
2019-04-23T09:26:51.679Z,12912.00
2019-04-23T09:27:47.083Z,12868.00
2019-04-23T09:28:51.886Z,12824.00
2019-04-23T09:32:47.296Z,12636.00
2019-04-23T09:35:48.704Z,12452.00
2019-04-23T09:36:49.156Z,12408.00
2019-04-23T09:38:52.516Z,12252.00
2019-04-23T09:39:49.749Z,12196.00
2019-04-23T09:41:04.026Z,12144.00
2019-04-23T09:41:48.200Z,12096.00
2019-04-23T09:43:00.624Z,12052.00
2019-04-23T09:43:57.755Z,11988.00
2019-04-23T09:45:51.993Z,11844.00
2019-04-23T09:46:53.183Z,11768.00
2019-04-23T09:47:50.496Z,11692.00
2019-04-23T09:48:50.953Z,11624.00
2019-04-23T09:49:50.175Z,11556.00
2019-04-23T09:50:56.994Z,11464.00
2019-04-23T09:51:59.373Z,11424.00
2019-04-23T09:53:01.846Z,11372.00
2019-04-23T09:53:50.401Z,11308.00
2019-04-23T09:54:58.592Z,11220.00
2019-04-23T09:55:41.924Z,11136.00
2019-04-23T09:56:49.522Z,11056.00
2019-04-23T09:57:55.495Z,10984.00
2019-04-23T09:58:52.541Z,10936.00
2019-04-23T09:59:53.057Z,10880.00
2019-04-23T10:00:44.967Z,10828.00
2019-04-23T10:01:40.950Z,10796.00
2019-04-23T10:02:41.196Z,10768.00
2019-04-23T10:03:39.037Z,10740.00
2019-04-23T10:04:39.810Z,10688.00
2019-04-23T10:05:30.964Z,10656.00
2019-04-23T10:06:26.584Z,10612.00
2019-04-23T10:07:34.860Z,10572.00
2019-04-23T10:08:31.222Z,10560.00
2019-04-23T10:09:23.869Z,10544.00
2019-04-23T10:10:22.710Z,10520.00
2019-04-23T10:11:22.368Z,10520.00
2019-04-23T10:12:22.178Z,10480.00
2019-04-23T10:13:22.118Z,10440.00
2019-04-23T10:14:22.109Z,10416.00
2019-04-23T10:15:26.721Z,10412.00
2019-04-23T10:16:25.686Z,10404.00
2019-04-23T10:17:22.284Z,10412.00
2019-04-23T10:18:22.436Z,10416.00
2019-04-23T10:19:22.591Z,10432.00
2019-04-23T10:20:22.544Z,10420.00
2019-04-23T10:21:23.626Z,10448.00
2019-04-23T10:22:23.059Z,10456.00
2019-04-23T10:23:23.194Z,10436.00
2019-04-23T10:24:23.278Z,10424.00
2019-04-23T10:25:22.826Z,10404.00
2019-04-23T10:26:21.989Z,10384.00
2019-04-23T10:27:23.275Z,10400.00
2019-04-23T10:28:22.999Z,10408.00
2019-04-23T10:29:23.598Z,10424.00
2019-04-23T10:30:21.897Z,10444.00
2019-04-23T10:31:22.897Z,10436.00
2019-04-23T10:32:21.915Z,10444.00
2019-04-23T10:33:23.417Z,10464.00
2019-04-23T10:34:23.271Z,10492.00
2019-04-23T10:35:33.852Z,10544.00
2019-04-23T10:36:25.478Z,10596.00
2019-04-23T10:37:34.224Z,10660.00
2019-04-23T10:38:22.565Z,10764.00
2019-04-23T10:39:26.305Z,10864.00
2019-04-23T10:40:28.145Z,10976.00
2019-04-23T10:41:22.535Z,11080.00
2019-04-23T10:42:21.958Z,11204.00
2019-04-23T10:43:22.638Z,11324.00
2019-04-23T10:44:23.516Z,11464.00
2019-04-23T10:45:34.873Z,11560.00
2019-04-23T10:46:43.594Z,11660.00
2019-04-23T10:47:59.451Z,11756.00
2019-04-23T10:48:49.624Z,11884.00
2019-04-23T10:49:53.524Z,11996.00
2019-04-23T10:52:02.283Z,12228.00
2019-04-23T10:52:53.711Z,12340.00
2019-04-23T10:53:52.060Z,12452.00
2019-04-23T10:54:45.153Z,12608.00
2019-04-23T10:57:45.860Z,12984.00
2019-04-23T10:58:47.524Z,13128.00
2019-04-23T11:00:53.542Z,13388.00
2019-04-23T11:01:56.165Z,13480.00
2019-04-23T11:02:51.335Z,13532.00
2019-04-23T11:05:59.022Z,13608.00
2019-04-23T11:06:50.122Z,13588.00
2019-04-23T11:07:47.222Z,13580.00
2019-04-23T11:08:50.577Z,13684.00
2019-04-23T11:09:55.605Z,13804.00
2019-04-23T11:10:50.423Z,13872.00
2019-04-23T11:11:56.635Z,13980.00
2019-04-23T11:13:53.531Z,14264.00
2019-04-23T11:18:56.653Z,14652.00
2019-04-23T11:19:58.223Z,14632.00
2019-04-23T11:21:58.226Z,14716.00
2019-04-23T11:22:48.242Z,14764.00
2019-04-23T11:24:12.702Z,14820.00
2019-04-23T11:24:48.387Z,14860.00
2019-04-23T11:25:44.831Z,14880.00
2019-04-23T11:26:51.520Z,14924.00
2019-04-23T11:27:59.753Z,15016.00
2019-04-23T11:28:44.864Z,15144.00
2019-04-23T11:29:48.593Z,15296.00
2019-04-23T11:31:03.511Z,15476.00
2019-04-23T11:31:57.109Z,15608.00
2019-04-23T11:33:59.450Z,15812.00
2019-04-23T11:36:06.260Z,16008.00
2019-04-23T11:38:11.882Z,16204.00
2019-04-23T11:38:56.163Z,16344.00
2019-04-23T11:39:55.826Z,16640.00
2019-04-23T11:40:42.166Z,16736.00
2019-04-23T11:43:46.523Z,17280.00
2019-04-23T11:44:56.164Z,17504.00
2019-04-23T11:49:10.210Z,17984.00
2019-04-23T11:51:30.271Z,18208.00
2019-04-23T11:53:07.392Z,18464.00
2019-04-23T11:53:47.949Z,18528.00
2019-04-23T11:54:53.022Z,18656.00
2019-04-23T11:57:27.259Z,18656.00
2019-04-23T11:57:59.185Z,18656.00
2019-04-23T11:58:49.243Z,18752.00
2019-04-23T12:00:10.879Z,18848.00
2019-04-23T12:01:18.369Z,18976.00
2019-04-23T12:01:52.195Z,19040.00
2019-04-23T12:03:57.353Z,19168.00
2019-04-23T12:04:59.219Z,19264.00
2019-04-23T12:05:52.314Z,19424.00
2019-04-23T12:06:52.824Z,19616.00
2019-04-23T12:07:53.777Z,19744.00
2019-04-23T12:10:20.032Z,19968.00
2019-04-23T12:11:08.432Z,20032.00
2019-04-23T12:12:00.081Z,20128.00
2019-04-23T12:12:49.540Z,20224.00
2019-04-23T12:13:56.672Z,20416.00
2019-04-23T12:15:07.262Z,20544.00
2019-04-23T12:15:53.507Z,20736.00
2019-04-23T12:17:05.537Z,20896.00
2019-04-23T12:19:04.632Z,21376.00
2019-04-23T12:19:57.791Z,21600.00
2019-04-23T12:20:46.288Z,21760.00
2019-04-23T12:21:58.294Z,21888.00
2019-04-23T12:23:01.070Z,21952.00
2019-04-23T12:25:09.409Z,22048.00
2019-04-23T12:26:53.892Z,22240.00
2019-04-23T12:27:38.627Z,22304.00
2019-04-23T12:28:53.616Z,22432.00
2019-04-23T12:29:52.668Z,22432.00
2019-04-23T12:31:47.263Z,22688.00
2019-04-23T12:32:56.616Z,22880.00
2019-04-23T12:33:51.370Z,23104.00
2019-04-23T12:35:04.386Z,23296.00
2019-04-23T12:35:43.926Z,23520.00
2019-04-23T12:36:46.878Z,23776.00
2019-04-23T12:37:49.381Z,23968.00
2019-04-23T12:38:51.974Z,24160.00
2019-04-23T12:39:49.794Z,24352.00
2019-04-23T12:40:44.287Z,24640.00
2019-04-23T12:41:51.185Z,25024.00
2019-04-23T12:43:04.067Z,25440.00
2019-04-23T12:43:48.542Z,25952.00
2019-04-23T12:44:56.424Z,26336.00
2019-04-23T12:45:42.275Z,26720.00
2019-04-23T12:50:05.426Z,28320.00
2019-04-23T12:51:08.945Z,28640.00
2019-04-23T12:51:57.813Z,28992.00
2019-04-23T12:53:41.808Z,29440.00
2019-04-23T12:54:57.968Z,29568.00
2019-04-23T12:56:59.535Z,29728.00
2019-04-23T12:58:03.517Z,29792.00
2019-04-23T12:58:38.241Z,29792.00
2019-04-23T12:59:50.175Z,29760.00
2019-04-23T13:00:38.924Z,29664.00
2019-04-23T13:01:48.926Z,29664.00
2019-04-23T13:03:47.393Z,29728.00
2019-04-23T13:05:12.188Z,29760.00
2019-04-23T13:05:42.293Z,29792.00
2019-04-23T13:06:47.945Z,29952.00
2019-04-23T13:08:08.327Z,30016.00
2019-04-23T13:08:57.079Z,30016.00
2019-04-23T13:09:54.536Z,30016.00
2019-04-23T13:10:45.307Z,29984.00
2019-04-23T13:11:53.010Z,30016.00
2019-04-23T13:12:50.359Z,30048.00
2019-04-23T13:14:49.646Z,30048.00
2019-04-23T13:15:48.891Z,30016.00
2019-04-23T13:16:54.053Z,29952.00
2019-04-23T13:17:50.253Z,30080.00
2019-04-23T13:21:57.143Z,33184.00
2019-04-23T13:23:51.090Z,34144.00
2019-04-23T13:24:48.740Z,36064.00
2019-04-23T13:25:54.164Z,44192.00
2019-04-23T13:26:46.556Z,53312.00
2019-04-23T13:27:54.361Z,55840.00
2019-04-23T13:28:45.862Z,54016.00
2019-04-23T13:29:51.483Z,52992.00
2019-04-23T13:31:40.326Z,50432.00
2019-04-23T13:32:55.446Z,50848.00
2019-04-23T13:33:58.066Z,49280.00
2019-04-23T13:35:05.164Z,47264.00
2019-04-23T13:36:08.421Z,46944.00
2019-04-23T13:36:56.410Z,49504.00
2019-04-23T13:37:54.452Z,52736.00
2019-04-23T13:39:44.029Z,52800.00
2019-04-23T13:41:47.751Z,50048.00
2019-04-23T13:42:57.272Z,47904.00
2019-04-23T13:43:42.536Z,46752.00
2019-04-23T13:44:46.652Z,45760.00
2019-04-23T13:46:55.749Z,44800.00
2019-04-23T13:47:54.733Z,44864.00
2019-04-23T13:48:42.062Z,43552.00
2019-04-23T13:49:53.231Z,43424.00
2019-04-23T13:51:48.695Z,41280.00
2019-04-23T13:54:04.189Z,36640.00
2019-04-23T13:55:44.375Z,35136.00
2019-04-23T13:58:53.237Z,34688.00
2019-04-23T13:59:48.391Z,34976.00
2019-04-23T14:00:58.175Z,35392.00
2019-04-23T14:01:46.743Z,35360.00
2019-04-23T14:03:47.952Z,36512.00
2019-04-23T14:04:50.830Z,36384.00
2019-04-23T14:05:51.254Z,36128.00
2019-04-23T14:06:49.531Z,35936.00
2019-04-23T14:08:53.763Z,36352.00
2019-04-23T14:09:57.607Z,36288.00
2019-04-23T14:10:48.275Z,36192.00
2019-04-23T14:11:40.125Z,36128.00
2019-04-23T14:12:53.335Z,35680.00
2019-04-23T14:14:05.822Z,35776.00
2019-04-23T14:15:04.460Z,35808.00
2019-04-23T14:15:54.039Z,35328.00
2019-04-23T14:17:08.673Z,34464.00
2019-04-23T14:18:56.132Z,34368.00
2019-04-23T14:19:47.792Z,35296.00
2019-04-23T14:20:53.231Z,35840.00
2019-04-23T14:21:44.515Z,36128.00
2019-04-23T14:24:04.552Z,35552.00
2019-04-23T14:26:05.255Z,35424.00
2019-04-23T14:27:09.665Z,35552.00
2019-04-23T14:28:01.267Z,35680.00
2019-04-23T14:28:44.561Z,36320.00
2019-04-23T14:29:56.589Z,36576.00
2019-04-23T14:30:53.498Z,36512.00
2019-04-23T14:31:50.861Z,36064.00
2019-04-23T14:33:11.963Z,36160.00
2019-04-23T14:34:54.147Z,35968.00
2019-04-23T14:35:46.803Z,35936.00
2019-04-23T14:36:55.501Z,34272.00
2019-04-23T14:38:07.328Z,32576.00
2019-04-23T14:38:49.705Z,30208.00
2019-04-23T14:39:45.587Z,28832.00
2019-04-23T14:40:58.926Z,27680.00
2019-04-23T14:42:03.644Z,28384.00
2019-04-23T14:43:07.628Z,29152.00
2019-04-23T14:43:57.958Z,30560.00
2019-04-23T14:44:49.752Z,31840.00
2019-04-23T14:46:11.579Z,33888.00
2019-04-23T14:46:50.014Z,35424.00
2019-04-23T14:49:04.312Z,35776.00
2019-04-23T14:49:59.440Z,35040.00
2019-04-23T14:51:09.818Z,35136.00
2019-04-23T14:52:56.893Z,36768.00
2019-04-23T14:53:43.841Z,36256.00
2019-04-23T14:55:27.922Z,35872.00
2019-04-23T14:56:07.722Z,35520.00
2019-04-23T14:56:56.823Z,35840.00
2019-04-23T14:58:06.364Z,36000.00
2019-04-23T14:59:45.149Z,35840.00
2019-04-23T15:00:52.983Z,36224.00
2019-04-23T15:01:51.394Z,37184.00
2019-04-23T15:02:53.301Z,38912.00
2019-04-23T15:03:46.909Z,42976.00
2019-04-23T15:04:48.229Z,45824.00
2019-04-23T15:05:56.224Z,47008.00
2019-04-23T15:06:50.774Z,46048.00
2019-04-23T15:08:06.255Z,46016.00
2019-04-23T15:09:58.820Z,45856.00
2019-04-23T15:11:05.236Z,46272.00
2019-04-23T15:11:57.712Z,45824.00
2019-04-23T15:14:52.400Z,46976.00
2019-04-23T15:15:53.184Z,48640.00
2019-04-23T15:17:49.620Z,48544.00
2019-04-23T15:20:53.586Z,49152.00
2019-04-23T15:21:55.527Z,50336.00
2019-04-23T15:23:02.564Z,49472.00
2019-04-23T15:24:03.734Z,47712.00
2019-04-23T15:24:49.941Z,47104.00
2019-04-23T15:26:03.631Z,47200.00
2019-04-23T15:28:05.275Z,47200.00
2019-04-23T15:28:27.155Z,47808.00
2019-04-23T15:29:30.194Z,46304.00
2019-04-23T15:30:50.920Z,44992.00
2019-04-23T15:31:51.244Z,44736.00
2019-04-23T15:32:56.582Z,43904.00
2019-04-23T15:33:55.403Z,43104.00
2019-04-23T15:34:47.350Z,43104.00
2019-04-23T15:38:16.133Z,43488.00
2019-04-23T15:38:53.223Z,43296.00
2019-04-23T15:39:56.700Z,43168.00
2019-04-23T15:42:52.334Z,40960.00
2019-04-23T15:43:52.955Z,40096.00
2019-04-23T15:44:50.189Z,39104.00
2019-04-23T15:45:52.116Z,38080.00
2019-04-23T15:46:58.104Z,38080.00
2019-04-23T15:47:49.327Z,37696.00
2019-04-23T15:48:54.024Z,37120.00
2019-04-23T15:49:51.800Z,36800.00
2019-04-23T15:52:53.143Z,35904.00
2019-04-23T15:53:50.997Z,35584.00
2019-04-23T15:54:50.578Z,36064.00
2019-04-23T15:55:50.198Z,35616.00
2019-04-23T15:56:50.091Z,35104.00
2019-04-23T15:58:05.430Z,35168.00
2019-04-23T15:59:13.533Z,35776.00
2019-04-23T15:59:48.206Z,35552.00
2019-04-23T16:00:54.347Z,34752.00
2019-04-23T16:01:40.362Z,33888.00
2019-04-23T16:02:18.478Z,32800.00
2019-04-23T16:03:21.327Z,32192.00
2019-04-23T16:04:20.104Z,31488.00
2019-04-23T16:05:20.919Z,31008.00
2019-04-23T16:06:22.070Z,30048.00
2019-04-23T16:07:39.353Z,29696.00
2019-04-23T16:08:58.967Z,29504.00
2019-04-23T16:09:46.147Z,29056.00
2019-04-23T16:11:48.176Z,28512.00
2019-04-23T16:12:51.906Z,28448.00
2019-04-23T16:14:04.648Z,28000.00
2019-04-23T16:14:50.360Z,27776.00
2019-04-23T16:15:50.902Z,27712.00
2019-04-23T16:17:50.306Z,27616.00
2019-04-23T16:18:49.925Z,27136.00
2019-04-23T16:19:54.982Z,26720.00
2019-04-23T16:22:39.799Z,25824.00
2019-04-23T16:23:55.403Z,25536.00
2019-04-23T16:24:52.988Z,25536.00
2019-04-23T16:25:42.029Z,25792.00
2019-04-23T16:27:46.875Z,25504.00
2019-04-23T16:29:07.126Z,25280.00
2019-04-23T16:30:06.309Z,25120.00
2019-04-23T16:30:46.538Z,24896.00
2019-04-23T16:31:51.824Z,24512.00
2019-04-23T16:32:58.653Z,24128.00
2019-04-23T16:33:48.855Z,24096.00
2019-04-23T16:34:44.877Z,23840.00
2019-04-23T16:35:50.030Z,23360.00
2019-04-23T16:36:43.879Z,23360.00
2019-04-23T16:37:56.984Z,22848.00
2019-04-23T16:38:49.093Z,22112.00
2019-04-23T16:39:54.629Z,21248.00
2019-04-23T16:40:57.332Z,19648.00
2019-04-23T16:41:54.801Z,17952.00
2019-04-23T16:42:49.207Z,17408.00
2019-04-23T16:43:49.258Z,17408.00
2019-04-23T16:45:00.938Z,17728.00
2019-04-23T16:46:52.956Z,18080.00
2019-04-23T16:47:52.312Z,17824.00
2019-04-23T16:49:51.147Z,16544.00
2019-04-23T16:51:02.675Z,16032.00
2019-04-23T16:51:47.976Z,15776.00
2019-04-23T16:53:11.561Z,15616.00
2019-04-23T16:53:44.737Z,15552.00
2019-04-23T16:54:54.763Z,15456.00
2019-04-23T16:55:50.046Z,15072.00
2019-04-23T16:57:01.462Z,14784.00
2019-04-23T16:58:57.930Z,13808.00
2019-04-23T17:00:02.531Z,13528.00
2019-04-23T17:01:53.969Z,12888.00
2019-04-23T17:02:54.763Z,12468.00
2019-04-23T17:03:52.598Z,12216.00
2019-04-23T17:04:49.967Z,12224.00
2019-04-23T17:05:50.853Z,12244.00
2019-04-23T17:06:52.371Z,12204.00
2019-04-23T17:07:53.720Z,12116.00
2019-04-23T17:09:57.873Z,11344.00
2019-04-23T17:11:53.090Z,10348.00
2019-04-23T17:12:51.895Z,10104.00
2019-04-23T17:13:46.242Z,9892.00
2019-04-23T17:14:51.792Z,9584.00
2019-04-23T17:15:53.346Z,9212.00
2019-04-23T17:17:52.223Z,8620.00
2019-04-23T17:18:52.247Z,8416.00
2019-04-23T17:19:47.801Z,8196.00
2019-04-23T17:20:47.588Z,7984.00
2019-04-23T17:21:51.937Z,7768.00
2019-04-23T17:22:46.739Z,7580.00
2019-04-23T17:24:51.746Z,7204.00
2019-04-23T17:25:48.858Z,7020.00
2019-04-23T17:27:48.464Z,6680.00
2019-04-23T17:28:49.901Z,6500.00
2019-04-23T17:30:52.290Z,6128.00
2019-04-23T17:31:38.137Z,5944.00